sensor_id;sensor_type;location;lat;lon;timestamp;P1;durP1;ratioP1;P2;durP2;ratioP2
74689;SDS011;63221;51.860;-2.188;2022-11-15T00:00:45;8.43;;;1.20;;
74689;SDS011;63221;51.860;-2.188;2022-11-15T00:03:13;5.13;;;1.20;;
74689;SDS011;63221;51.860;-2.188;2022-11-15T00:05:42;5.43;;;0.90;;
74689;SDS011;63221;51.860;-2.188;2022-11-15T00:08:07;7.32;;;0.80;;
74689;SDS011;63221;51.860;-2.188;2022-11-15T00:10:33;3.90;;;0.97;;
74689;SDS011;63221;51.860;-2.188;2022-11-15T00:12:59;3.03;;;0.30;;
74689;SDS011;63221;51.860;-2.188;2022-11-15T00:15:24;4.60;;;1.07;;
74689;SDS011;63221;51.860;-2.188;2022-11-15T00:17:50;5.30;;;1.03;;
74689;SDS011;63221;51.860;-2.188;2022-11-15T00:20:16;4.28;;;0.93;;
74689;SDS011;63221;51.860;-2.188;2022-11-15T00:22:42;3.08;;;0.88;;
74689;SDS011;63221;51.860;-2.188;2022-11-15T00:25:07;4.63;;;1.03;;
74689;SDS011;63221;51.860;-2.188;2022-11-15T00:27:33;3.40;;;0.60;;
74689;SDS011;63221;51.860;-2.188;2022-11-15T00:29:58;4.73;;;0.90;;
74689;SDS011;63221;51.860;-2.188;2022-11-15T00:32:24;4.15;;;1.15;;
74689;SDS011;63221;51.860;-2.188;2022-11-15T00:34:49;4.17;;;0.83;;
74689;SDS011;63221;51.860;-2.188;2022-11-15T00:37:15;2.37;;;0.93;;
74689;SDS011;63221;51.860;-2.188;2022-11-15T00:39:40;3.03;;;0.80;;
74689;SDS011;63221;51.860;-2.188;2022-11-15T00:42:06;3.70;;;0.55;;
74689;SDS011;63221;51.860;-2.188;2022-11-15T00:44:31;5.27;;;0.60;;
74689;SDS011;63221;51.860;-2.188;2022-11-15T00:46:57;2.83;;;0.93;;
74689;SDS011;63221;51.860;-2.188;2022-11-15T00:49:22;2.58;;;0.70;;
74689;SDS011;63221;51.860;-2.188;2022-11-15T00:51:47;4.77;;;1.10;;
74689;SDS011;63221;51.860;-2.188;2022-11-15T00:54:13;4.20;;;1.30;;
74689;SDS011;63221;51.860;-2.188;2022-11-15T00:56:38;4.27;;;1.20;;
74689;SDS011;63221;51.860;-2.188;2022-11-15T00:59:04;6.60;;;1.10;;
74689;SDS011;63221;51.860;-2.188;2022-11-15T01:01:29;5.05;;;1.20;;
74689;SDS011;63221;51.860;-2.188;2022-11-15T01:03:54;10.27;;;0.70;;
74689;SDS011;63221;51.860;-2.188;2022-11-15T01:06:20;2.87;;;0.43;;
74689;SDS011;63221;51.860;-2.188;2022-11-15T01:08:45;4.03;;;0.60;;
74689;SDS011;63221;51.860;-2.188;2022-11-15T01:11:11;10.47;;;1.10;;
74689;SDS011;63221;51.860;-2.188;2022-11-15T01:13:37;9.85;;;1.10;;
74689;SDS011;63221;51.860;-2.188;2022-11-15T01:16:11;6.22;;;0.88;;
74689;SDS011;63221;51.860;-2.188;2022-11-15T01:18:39;3.38;;;0.60;;
74689;SDS011;63221;51.860;-2.188;2022-11-15T01:21:09;3.58;;;1.15;;
74689;SDS011;63221;51.860;-2.188;2022-11-15T01:23:36;5.20;;;0.80;;
74689;SDS011;63221;51.860;-2.188;2022-11-15T01:26:03;4.05;;;0.70;;
74689;SDS011;63221;51.860;-2.188;2022-11-15T01:28:30;7.25;;;1.13;;
74689;SDS011;63221;51.860;-2.188;2022-11-15T01:31:00;5.20;;;1.30;;
74689;SDS011;63221;51.860;-2.188;2022-11-15T01:33:27;5.45;;;0.90;;
74689;SDS011;63221;51.860;-2.188;2022-11-15T01:35:53;6.67;;;0.87;;
74689;SDS011;63221;51.860;-2.188;2022-11-15T01:38:19;9.10;;;0.80;;
74689;SDS011;63221;51.860;-2.188;2022-11-15T01:40:44;2.63;;;0.60;;
74689;SDS011;63221;51.860;-2.188;2022-11-15T01:43:20;10.00;;;1.67;;
74689;SDS011;63221;51.860;-2.188;2022-11-15T01:45:55;7.72;;;0.85;;
74689;SDS011;63221;51.860;-2.188;2022-11-15T01:48:25;6.93;;;0.77;;
74689;SDS011;63221;51.860;-2.188;2022-11-15T01:50:53;7.18;;;1.05;;
74689;SDS011;63221;51.860;-2.188;2022-11-15T01:53:19;7.07;;;1.70;;
74689;SDS011;63221;51.860;-2.188;2022-11-15T01:55:46;5.68;;;1.33;;
74689;SDS011;63221;51.860;-2.188;2022-11-15T01:58:12;6.03;;;1.50;;
74689;SDS011;63221;51.860;-2.188;2022-11-15T02:00:37;3.90;;;0.90;;
74689;SDS011;63221;51.860;-2.188;2022-11-15T02:03:03;3.57;;;0.77;;
74689;SDS011;63221;51.860;-2.188;2022-11-15T02:05:28;4.43;;;0.90;;
74689;SDS011;63221;51.860;-2.188;2022-11-15T02:07:55;5.72;;;0.93;;
74689;SDS011;63221;51.860;-2.188;2022-11-15T02:10:22;3.43;;;0.83;;
74689;SDS011;63221;51.860;-2.188;2022-11-15T02:12:48;6.05;;;0.80;;
74689;SDS011;63221;51.860;-2.188;2022-11-15T02:15:14;6.43;;;0.80;;
74689;SDS011;63221;51.860;-2.188;2022-11-15T02:22:43;5.27;;;0.53;;
74689;SDS011;63221;51.860;-2.188;2022-11-15T02:34:05;4.43;;;0.73;;
74689;SDS011;63221;51.860;-2.188;2022-11-15T02:36:41;7.03;;;1.27;;
74689;SDS011;63221;51.860;-2.188;2022-11-15T02:42:07;9.07;;;1.10;;
74689;SDS011;63221;51.860;-2.188;2022-11-15T02:44:56;7.80;;;0.70;;
74689;SDS011;63221;51.860;-2.188;2022-11-15T02:47:23;3.95;;;0.90;;
74689;SDS011;63221;51.860;-2.188;2022-11-15T02:49:53;5.60;;;1.60;;
74689;SDS011;63221;51.860;-2.188;2022-11-15T02:52:21;3.78;;;1.00;;
74689;SDS011;63221;51.860;-2.188;2022-11-15T02:54:57;6.40;;;1.05;;
74689;SDS011;63221;51.860;-2.188;2022-11-15T03:00:05;4.03;;;0.77;;
74689;SDS011;63221;51.860;-2.188;2022-11-15T03:02:37;6.22;;;1.08;;
74689;SDS011;63221;51.860;-2.188;2022-11-15T03:11:17;5.00;;;1.07;;
74689;SDS011;63221;51.860;-2.188;2022-11-15T03:18:58;2.70;;;0.52;;
74689;SDS011;63221;51.860;-2.188;2022-11-15T03:21:27;2.55;;;1.00;;
74689;SDS011;63221;51.860;-2.188;2022-11-15T03:23:53;2.93;;;1.00;;
74689;SDS011;63221;51.860;-2.188;2022-11-15T03:26:19;5.75;;;1.00;;
74689;SDS011;63221;51.860;-2.188;2022-11-15T03:28:52;4.35;;;0.90;;
74689;SDS011;63221;51.860;-2.188;2022-11-15T03:31:19;7.43;;;1.13;;
74689;SDS011;63221;51.860;-2.188;2022-11-15T03:34:05;2.60;;;0.70;;
74689;SDS011;63221;51.860;-2.188;2022-11-15T03:36:34;3.05;;;0.57;;
74689;SDS011;63221;51.860;-2.188;2022-11-15T03:39:00;3.22;;;0.82;;
74689;SDS011;63221;51.860;-2.188;2022-11-15T03:41:29;1.90;;;0.50;;
74689;SDS011;63221;51.860;-2.188;2022-11-15T03:44:20;1.23;;;0.43;;
74689;SDS011;63221;51.860;-2.188;2022-11-15T03:46:49;3.00;;;0.98;;
74689;SDS011;63221;51.860;-2.188;2022-11-15T03:49:24;6.10;;;1.05;;
74689;SDS011;63221;51.860;-2.188;2022-11-15T03:51:52;1.55;;;0.40;;
74689;SDS011;63221;51.860;-2.188;2022-11-15T03:54:17;2.07;;;0.57;;
74689;SDS011;63221;51.860;-2.188;2022-11-15T03:56:43;8.27;;;1.10;;
74689;SDS011;63221;51.860;-2.188;2022-11-15T03:59:08;5.27;;;0.90;;
74689;SDS011;63221;51.860;-2.188;2022-11-15T04:01:33;2.38;;;0.80;;
74689;SDS011;63221;51.860;-2.188;2022-11-15T04:03:59;2.07;;;0.67;;
74689;SDS011;63221;51.860;-2.188;2022-11-15T04:06:24;2.13;;;0.60;;
74689;SDS011;63221;51.860;-2.188;2022-11-15T04:08:50;1.53;;;0.47;;
74689;SDS011;63221;51.860;-2.188;2022-11-15T04:11:15;5.20;;;0.40;;
74689;SDS011;63221;51.860;-2.188;2022-11-15T04:13:40;3.35;;;0.60;;
74689;SDS011;63221;51.860;-2.188;2022-11-15T04:16:06;1.33;;;0.33;;
74689;SDS011;63221;51.860;-2.188;2022-11-15T04:18:31;1.93;;;0.30;;
74689;SDS011;63221;51.860;-2.188;2022-11-15T04:20:57;2.57;;;0.53;;
74689;SDS011;63221;51.860;-2.188;2022-11-15T04:23:41;1.33;;;0.38;;
74689;SDS011;63221;51.860;-2.188;2022-11-15T04:26:25;1.15;;;0.43;;
74689;SDS011;63221;51.860;-2.188;2022-11-15T04:28:50;3.20;;;0.77;;
74689;SDS011;63221;51.860;-2.188;2022-11-15T04:31:34;1.95;;;0.40;;
74689;SDS011;63221;51.860;-2.188;2022-11-15T04:33:59;1.83;;;1.13;;
74689;SDS011;63221;51.860;-2.188;2022-11-15T04:36:25;1.23;;;0.50;;
74689;SDS011;63221;51.860;-2.188;2022-11-15T04:39:09;1.75;;;0.55;;
74689;SDS011;63221;51.860;-2.188;2022-11-15T04:41:34;2.20;;;1.13;;
74689;SDS011;63221;51.860;-2.188;2022-11-15T04:44:00;3.08;;;0.57;;
74689;SDS011;63221;51.860;-2.188;2022-11-15T04:46:25;1.97;;;0.63;;
74689;SDS011;63221;51.860;-2.188;2022-11-15T04:48:51;1.10;;;0.73;;
74689;SDS011;63221;51.860;-2.188;2022-11-15T04:51:17;2.60;;;0.60;;
74689;SDS011;63221;51.860;-2.188;2022-11-15T04:53:42;1.63;;;0.45;;
74689;SDS011;63221;51.860;-2.188;2022-11-15T04:56:08;2.83;;;0.40;;
74689;SDS011;63221;51.860;-2.188;2022-11-15T04:58:33;1.13;;;0.30;;
74689;SDS011;63221;51.860;-2.188;2022-11-15T05:01:05;0.93;;;0.33;;
74689;SDS011;63221;51.860;-2.188;2022-11-15T05:03:34;0.70;;;0.47;;
74689;SDS011;63221;51.860;-2.188;2022-11-15T05:06:18;0.95;;;0.30;;
74689;SDS011;63221;51.860;-2.188;2022-11-15T05:08:43;0.90;;;0.30;;
74689;SDS011;63221;51.860;-2.188;2022-11-15T05:11:09;1.00;;;0.30;;
74689;SDS011;63221;51.860;-2.188;2022-11-15T05:13:34;0.73;;;0.40;;
74689;SDS011;63221;51.860;-2.188;2022-11-15T05:15:59;2.28;;;0.85;;
74689;SDS011;63221;51.860;-2.188;2022-11-15T05:18:25;0.70;;;0.40;;
74689;SDS011;63221;51.860;-2.188;2022-11-15T05:20:50;2.30;;;0.50;;
74689;SDS011;63221;51.860;-2.188;2022-11-15T05:23:16;0.80;;;0.20;;
74689;SDS011;63221;51.860;-2.188;2022-11-15T05:25:41;0.80;;;0.60;;
74689;SDS011;63221;51.860;-2.188;2022-11-15T05:28:06;1.15;;;0.50;;
74689;SDS011;63221;51.860;-2.188;2022-11-15T05:30:32;0.90;;;0.40;;
74689;SDS011;63221;51.860;-2.188;2022-11-15T05:32:57;1.97;;;0.33;;
74689;SDS011;63221;51.860;-2.188;2022-11-15T05:35:45;0.60;;;0.53;;
74689;SDS011;63221;51.860;-2.188;2022-11-15T05:38:11;2.40;;;0.10;;
74689;SDS011;63221;51.860;-2.188;2022-11-15T05:40:36;0.70;;;0.40;;
74689;SDS011;63221;51.860;-2.188;2022-11-15T05:43:02;0.47;;;0.20;;
74689;SDS011;63221;51.860;-2.188;2022-11-15T05:45:29;2.45;;;0.57;;
74689;SDS011;63221;51.860;-2.188;2022-11-15T05:47:55;0.87;;;0.43;;
74689;SDS011;63221;51.860;-2.188;2022-11-15T05:50:21;0.38;;;0.20;;
74689;SDS011;63221;51.860;-2.188;2022-11-15T05:52:47;0.73;;;0.20;;
74689;SDS011;63221;51.860;-2.188;2022-11-15T05:55:13;0.75;;;0.20;;
74689;SDS011;63221;51.860;-2.188;2022-11-15T05:57:39;0.30;;;0.10;;
74689;SDS011;63221;51.860;-2.188;2022-11-15T06:00:04;2.87;;;0.50;;
74689;SDS011;63221;51.860;-2.188;2022-11-15T06:02:30;0.60;;;0.35;;
74689;SDS011;63221;51.860;-2.188;2022-11-15T06:04:56;0.43;;;0.30;;
74689;SDS011;63221;51.860;-2.188;2022-11-15T06:07:21;1.37;;;0.40;;
74689;SDS011;63221;51.860;-2.188;2022-11-15T06:09:47;0.40;;;0.20;;
74689;SDS011;63221;51.860;-2.188;2022-11-15T06:12:12;0.90;;;0.37;;
74689;SDS011;63221;51.860;-2.188;2022-11-15T06:14:38;0.75;;;0.30;;
74689;SDS011;63221;51.860;-2.188;2022-11-15T06:17:03;0.70;;;0.60;;
74689;SDS011;63221;51.860;-2.188;2022-11-15T06:19:29;0.73;;;0.50;;
74689;SDS011;63221;51.860;-2.188;2022-11-15T06:21:58;0.75;;;0.47;;
74689;SDS011;63221;51.860;-2.188;2022-11-15T06:24:24;1.25;;;0.60;;
74689;SDS011;63221;51.860;-2.188;2022-11-15T06:26:49;0.67;;;0.50;;
74689;SDS011;63221;51.860;-2.188;2022-11-15T06:29:14;1.27;;;0.60;;
74689;SDS011;63221;51.860;-2.188;2022-11-15T06:31:40;0.68;;;0.68;;
74689;SDS011;63221;51.860;-2.188;2022-11-15T06:34:05;0.80;;;0.57;;
74689;SDS011;63221;51.860;-2.188;2022-11-15T06:36:31;1.17;;;0.47;;
74689;SDS011;63221;51.860;-2.188;2022-11-15T06:38:59;1.17;;;0.50;;
74689;SDS011;63221;51.860;-2.188;2022-11-15T06:41:24;0.50;;;0.40;;
74689;SDS011;63221;51.860;-2.188;2022-11-15T06:43:50;1.33;;;0.50;;
74689;SDS011;63221;51.860;-2.188;2022-11-15T06:46:15;0.40;;;0.40;;
74689;SDS011;63221;51.860;-2.188;2022-11-15T06:48:41;0.63;;;0.27;;
74689;SDS011;63221;51.860;-2.188;2022-11-15T06:51:06;0.70;;;0.30;;
74689;SDS011;63221;51.860;-2.188;2022-11-15T06:53:32;2.25;;;0.50;;
74689;SDS011;63221;51.860;-2.188;2022-11-15T06:55:58;2.03;;;0.70;;
74689;SDS011;63221;51.860;-2.188;2022-11-15T06:58:24;0.40;;;0.20;;
74689;SDS011;63221;51.860;-2.188;2022-11-15T07:00:50;1.00;;;0.30;;
74689;SDS011;63221;51.860;-2.188;2022-11-15T07:03:15;0.90;;;0.60;;
74689;SDS011;63221;51.860;-2.188;2022-11-15T07:05:41;0.80;;;0.43;;
74689;SDS011;63221;51.860;-2.188;2022-11-15T07:08:06;1.67;;;0.55;;
74689;SDS011;63221;51.860;-2.188;2022-11-15T07:10:31;1.73;;;0.50;;
74689;SDS011;63221;51.860;-2.188;2022-11-15T07:12:57;0.90;;;0.53;;
74689;SDS011;63221;51.860;-2.188;2022-11-15T07:15:23;0.93;;;0.80;;
74689;SDS011;63221;51.860;-2.188;2022-11-15T07:17:50;0.70;;;0.60;;
74689;SDS011;63221;51.860;-2.188;2022-11-15T07:20:15;2.57;;;0.33;;
74689;SDS011;63221;51.860;-2.188;2022-11-15T07:22:41;1.17;;;0.65;;
74689;SDS011;63221;51.860;-2.188;2022-11-15T07:25:07;1.00;;;0.30;;
74689;SDS011;63221;51.860;-2.188;2022-11-15T07:27:33;2.60;;;0.60;;
74689;SDS011;63221;51.860;-2.188;2022-11-15T07:29:59;2.45;;;0.30;;
74689;SDS011;63221;51.860;-2.188;2022-11-15T07:32:24;1.97;;;0.60;;
74689;SDS011;63221;51.860;-2.188;2022-11-15T07:34:50;1.47;;;0.50;;
74689;SDS011;63221;51.860;-2.188;2022-11-15T07:37:15;1.00;;;0.10;;
74689;SDS011;63221;51.860;-2.188;2022-11-15T07:39:42;1.15;;;0.20;;
74689;SDS011;63221;51.860;-2.188;2022-11-15T07:42:07;0.60;;;0.50;;
74689;SDS011;63221;51.860;-2.188;2022-11-15T07:44:51;1.20;;;0.60;;
74689;SDS011;63221;51.860;-2.188;2022-11-15T07:47:17;0.90;;;0.30;;
74689;SDS011;63221;51.860;-2.188;2022-11-15T07:49:42;0.50;;;0.33;;
74689;SDS011;63221;51.860;-2.188;2022-11-15T07:52:08;1.23;;;0.53;;
74689;SDS011;63221;51.860;-2.188;2022-11-15T07:54:33;0.70;;;0.23;;
74689;SDS011;63221;51.860;-2.188;2022-11-15T07:56:59;3.03;;;0.60;;
74689;SDS011;63221;51.860;-2.188;2022-11-15T07:59:24;1.40;;;0.50;;
74689;SDS011;63221;51.860;-2.188;2022-11-15T08:01:49;0.90;;;0.30;;
74689;SDS011;63221;51.860;-2.188;2022-11-15T08:04:15;1.87;;;0.40;;
74689;SDS011;63221;51.860;-2.188;2022-11-15T08:06:40;1.07;;;0.30;;
74689;SDS011;63221;51.860;-2.188;2022-11-15T08:09:06;1.58;;;0.40;;
74689;SDS011;63221;51.860;-2.188;2022-11-15T08:11:31;0.70;;;0.30;;
74689;SDS011;63221;51.860;-2.188;2022-11-15T08:13:56;0.97;;;0.20;;
74689;SDS011;63221;51.860;-2.188;2022-11-15T08:16:22;1.53;;;0.20;;
74689;SDS011;63221;51.860;-2.188;2022-11-15T08:18:47;0.93;;;0.10;;
74689;SDS011;63221;51.860;-2.188;2022-11-15T08:21:14;2.00;;;0.50;;
74689;SDS011;63221;51.860;-2.188;2022-11-15T08:23:43;1.13;;;0.22;;
74689;SDS011;63221;51.860;-2.188;2022-11-15T08:26:09;0.90;;;0.30;;
74689;SDS011;63221;51.860;-2.188;2022-11-15T08:28:34;1.20;;;0.40;;
74689;SDS011;63221;51.860;-2.188;2022-11-15T08:31:00;0.95;;;0.40;;
74689;SDS011;63221;51.860;-2.188;2022-11-15T08:33:26;1.47;;;0.63;;
74689;SDS011;63221;51.860;-2.188;2022-11-15T08:35:51;1.15;;;0.43;;
74689;SDS011;63221;51.860;-2.188;2022-11-15T08:38:17;1.93;;;0.37;;
74689;SDS011;63221;51.860;-2.188;2022-11-15T08:40:42;1.38;;;0.30;;
74689;SDS011;63221;51.860;-2.188;2022-11-15T08:43:08;0.50;;;0.30;;
74689;SDS011;63221;51.860;-2.188;2022-11-15T08:45:34;0.90;;;0.50;;
74689;SDS011;63221;51.860;-2.188;2022-11-15T08:48:00;0.40;;;0.30;;
74689;SDS011;63221;51.860;-2.188;2022-11-15T08:50:27;0.95;;;0.50;;
74689;SDS011;63221;51.860;-2.188;2022-11-15T08:52:52;0.73;;;0.30;;
74689;SDS011;63221;51.860;-2.188;2022-11-15T08:55:18;0.95;;;0.68;;
74689;SDS011;63221;51.860;-2.188;2022-11-15T08:57:43;1.67;;;0.53;;
74689;SDS011;63221;51.860;-2.188;2022-11-15T09:00:09;0.67;;;0.37;;
74689;SDS011;63221;51.860;-2.188;2022-11-15T09:02:37;1.33;;;0.30;;
74689;SDS011;63221;51.860;-2.188;2022-11-15T09:05:05;1.10;;;0.52;;
74689;SDS011;63221;51.860;-2.188;2022-11-15T09:07:31;0.90;;;0.20;;
74689;SDS011;63221;51.860;-2.188;2022-11-15T09:09:57;1.33;;;0.60;;
74689;SDS011;63221;51.860;-2.188;2022-11-15T09:12:23;1.60;;;0.60;;
74689;SDS011;63221;51.860;-2.188;2022-11-15T09:14:48;1.05;;;0.63;;
74689;SDS011;63221;51.860;-2.188;2022-11-15T09:17:14;1.43;;;0.50;;
74689;SDS011;63221;51.860;-2.188;2022-11-15T09:19:39;0.60;;;0.30;;
74689;SDS011;63221;51.860;-2.188;2022-11-15T09:22:05;0.60;;;0.33;;
74689;SDS011;63221;51.860;-2.188;2022-11-15T09:24:31;0.82;;;0.32;;
74689;SDS011;63221;51.860;-2.188;2022-11-15T09:26:57;1.50;;;0.73;;
74689;SDS011;63221;51.860;-2.188;2022-11-15T09:29:22;1.13;;;1.03;;
74689;SDS011;63221;51.860;-2.188;2022-11-15T09:31:47;0.40;;;0.30;;
74689;SDS011;63221;51.860;-2.188;2022-11-15T09:34:13;0.80;;;0.50;;
74689;SDS011;63221;51.860;-2.188;2022-11-15T09:36:38;0.52;;;0.20;;
74689;SDS011;63221;51.860;-2.188;2022-11-15T09:39:04;1.00;;;0.23;;
74689;SDS011;63221;51.860;-2.188;2022-11-15T09:41:34;2.60;;;0.30;;
74689;SDS011;63221;51.860;-2.188;2022-11-15T09:46:35;1.17;;;0.37;;
74689;SDS011;63221;51.860;-2.188;2022-11-15T09:49:03;0.60;;;0.38;;
74689;SDS011;63221;51.860;-2.188;2022-11-15T09:51:33;1.05;;;0.40;;
74689;SDS011;63221;51.860;-2.188;2022-11-15T09:54:43;0.93;;;0.40;;
74689;SDS011;63221;51.860;-2.188;2022-11-15T09:56:52;2.35;;;0.22;;
74689;SDS011;63221;51.860;-2.188;2022-11-15T10:04:37;1.17;;;0.57;;
74689;SDS011;63221;51.860;-2.188;2022-11-15T10:10:03;0.65;;;0.40;;
74689;SDS011;63221;51.860;-2.188;2022-11-15T10:12:33;0.50;;;0.45;;
74689;SDS011;63221;51.860;-2.188;2022-11-15T10:15:02;0.83;;;0.43;;
74689;SDS011;63221;51.860;-2.188;2022-11-15T10:20:21;1.08;;;0.68;;
74689;SDS011;63221;51.860;-2.188;2022-11-15T10:22:51;1.20;;;0.60;;
74689;SDS011;63221;51.860;-2.188;2022-11-15T10:25:22;1.52;;;0.75;;
74689;SDS011;63221;51.860;-2.188;2022-11-15T10:28:09;1.07;;;0.57;;
74689;SDS011;63221;51.860;-2.188;2022-11-15T10:30:41;1.42;;;0.80;;
74689;SDS011;63221;51.860;-2.188;2022-11-15T10:35:42;1.75;;;0.65;;
74689;SDS011;63221;51.860;-2.188;2022-11-15T10:38:08;1.37;;;0.40;;
74689;SDS011;63221;51.860;-2.188;2022-11-15T10:40:35;1.00;;;0.30;;
74689;SDS011;63221;51.860;-2.188;2022-11-15T10:45:43;2.97;;;1.15;;
74689;SDS011;63221;51.860;-2.188;2022-11-15T10:50:39;1.52;;;0.73;;
74689;SDS011;63221;51.860;-2.188;2022-11-15T10:53:12;2.78;;;0.30;;
74689;SDS011;63221;51.860;-2.188;2022-11-15T10:55:41;3.00;;;0.80;;
74689;SDS011;63221;51.860;-2.188;2022-11-15T11:00:47;1.00;;;0.77;;
74689;SDS011;63221;51.860;-2.188;2022-11-15T11:03:29;1.70;;;0.68;;
74689;SDS011;63221;51.860;-2.188;2022-11-15T11:06:04;0.90;;;0.50;;
74689;SDS011;63221;51.860;-2.188;2022-11-15T11:08:36;1.50;;;0.88;;
74689;SDS011;63221;51.860;-2.188;2022-11-15T11:11:02;2.35;;;0.82;;
74689;SDS011;63221;51.860;-2.188;2022-11-15T11:13:36;2.47;;;0.63;;
74689;SDS011;63221;51.860;-2.188;2022-11-15T11:21:35;4.05;;;1.02;;
74689;SDS011;63221;51.860;-2.188;2022-11-15T11:24:18;2.35;;;0.70;;
74689;SDS011;63221;51.860;-2.188;2022-11-15T11:27:16;3.50;;;1.60;;
74689;SDS011;63221;51.860;-2.188;2022-11-15T11:32:38;6.10;;;1.17;;
74689;SDS011;63221;51.860;-2.188;2022-11-15T11:35:17;3.30;;;1.55;;
74689;SDS011;63221;51.860;-2.188;2022-11-15T11:37:51;3.70;;;1.88;;
74689;SDS011;63221;51.860;-2.188;2022-11-15T11:46:10;5.10;;;2.25;;
74689;SDS011;63221;51.860;-2.188;2022-11-15T11:49:01;4.45;;;2.15;;
74689;SDS011;63221;51.860;-2.188;2022-11-15T11:51:36;4.95;;;3.17;;
74689;SDS011;63221;51.860;-2.188;2022-11-15T11:54:16;5.40;;;2.90;;
74689;SDS011;63221;51.860;-2.188;2022-11-15T11:56:45;6.57;;;2.83;;
74689;SDS011;63221;51.860;-2.188;2022-11-15T11:59:22;5.83;;;2.90;;
74689;SDS011;63221;51.860;-2.188;2022-11-15T12:01:50;6.90;;;2.97;;
74689;SDS011;63221;51.860;-2.188;2022-11-15T12:04:29;6.60;;;3.70;;
74689;SDS011;63221;51.860;-2.188;2022-11-15T12:09:55;5.32;;;3.00;;
74689;SDS011;63221;51.860;-2.188;2022-11-15T12:12:49;6.00;;;3.63;;
74689;SDS011;63221;51.860;-2.188;2022-11-15T12:15:21;6.05;;;3.28;;
74689;SDS011;63221;51.860;-2.188;2022-11-15T12:17:49;5.25;;;2.95;;
74689;SDS011;63221;51.860;-2.188;2022-11-15T12:20:16;7.47;;;3.20;;
74689;SDS011;63221;51.860;-2.188;2022-11-15T12:22:58;4.70;;;2.35;;
74689;SDS011;63221;51.860;-2.188;2022-11-15T12:25:29;4.65;;;2.60;;
74689;SDS011;63221;51.860;-2.188;2022-11-15T12:28:01;5.72;;;3.00;;
74689;SDS011;63221;51.860;-2.188;2022-11-15T12:30:50;5.43;;;2.93;;
74689;SDS011;63221;51.860;-2.188;2022-11-15T12:36:08;4.15;;;2.10;;
74689;SDS011;63221;51.860;-2.188;2022-11-15T12:41:29;5.38;;;2.00;;
74689;SDS011;63221;51.860;-2.188;2022-11-15T12:43:55;4.50;;;1.70;;
74689;SDS011;63221;51.860;-2.188;2022-11-15T12:46:22;4.90;;;2.17;;
74689;SDS011;63221;51.860;-2.188;2022-11-15T12:48:53;6.00;;;2.22;;
74689;SDS011;63221;51.860;-2.188;2022-11-15T12:51:19;5.20;;;1.33;;
74689;SDS011;63221;51.860;-2.188;2022-11-15T12:53:46;4.50;;;1.45;;
74689;SDS011;63221;51.860;-2.188;2022-11-15T13:04:07;2.47;;;1.30;;
74689;SDS011;63221;51.860;-2.188;2022-11-15T13:06:52;3.72;;;1.38;;
74689;SDS011;63221;51.860;-2.188;2022-11-15T13:14:47;4.70;;;2.22;;
74689;SDS011;63221;51.860;-2.188;2022-11-15T13:19:45;5.13;;;2.15;;
74689;SDS011;63221;51.860;-2.188;2022-11-15T13:22:12;2.90;;;1.63;;
74689;SDS011;63221;51.860;-2.188;2022-11-15T13:24:56;2.95;;;1.88;;
74689;SDS011;63221;51.860;-2.188;2022-11-15T13:27:22;3.90;;;1.97;;
74689;SDS011;63221;51.860;-2.188;2022-11-15T13:29:48;3.00;;;1.58;;
74689;SDS011;63221;51.860;-2.188;2022-11-15T13:32:13;2.50;;;1.60;;
74689;SDS011;63221;51.860;-2.188;2022-11-15T13:34:44;2.10;;;0.77;;
74689;SDS011;63221;51.860;-2.188;2022-11-15T13:37:32;2.58;;;0.90;;
74689;SDS011;63221;51.860;-2.188;2022-11-15T13:40:10;4.30;;;0.70;;
74689;SDS011;63221;51.860;-2.188;2022-11-15T13:42:57;3.35;;;0.50;;
74689;SDS011;63221;51.860;-2.188;2022-11-15T13:45:23;2.22;;;0.80;;
74689;SDS011;63221;51.860;-2.188;2022-11-15T13:47:56;1.10;;;0.40;;
74689;SDS011;63221;51.860;-2.188;2022-11-15T13:50:25;2.33;;;0.63;;
74689;SDS011;63221;51.860;-2.188;2022-11-15T13:52:56;2.10;;;0.57;;
74689;SDS011;63221;51.860;-2.188;2022-11-15T13:55:23;2.55;;;0.45;;
74689;SDS011;63221;51.860;-2.188;2022-11-15T13:57:53;2.97;;;0.43;;
74689;SDS011;63221;51.860;-2.188;2022-11-15T14:03:04;3.23;;;0.60;;
74689;SDS011;63221;51.860;-2.188;2022-11-15T14:05:32;5.03;;;0.47;;
74689;SDS011;63221;51.860;-2.188;2022-11-15T14:08:02;2.65;;;1.00;;
74689;SDS011;63221;51.860;-2.188;2022-11-15T14:10:31;2.17;;;0.77;;
74689;SDS011;63221;51.860;-2.188;2022-11-15T14:13:10;3.65;;;0.47;;
74689;SDS011;63221;51.860;-2.188;2022-11-15T14:15:38;2.20;;;0.70;;
74689;SDS011;63221;51.860;-2.188;2022-11-15T14:18:04;3.72;;;1.10;;
74689;SDS011;63221;51.860;-2.188;2022-11-15T14:23:00;4.23;;;0.60;;
74689;SDS011;63221;51.860;-2.188;2022-11-15T14:25:34;3.13;;;0.60;;
74689;SDS011;63221;51.860;-2.188;2022-11-15T14:30:47;2.03;;;1.05;;
74689;SDS011;63221;51.860;-2.188;2022-11-15T14:35:57;2.37;;;0.40;;
74689;SDS011;63221;51.860;-2.188;2022-11-15T14:38:27;5.75;;;1.00;;
74689;SDS011;63221;51.860;-2.188;2022-11-15T14:40:52;3.90;;;1.07;;
74689;SDS011;63221;51.860;-2.188;2022-11-15T14:43:19;5.47;;;1.08;;
74689;SDS011;63221;51.860;-2.188;2022-11-15T14:45:45;6.30;;;0.90;;
74689;SDS011;63221;51.860;-2.188;2022-11-15T14:48:11;4.88;;;0.85;;
74689;SDS011;63221;51.860;-2.188;2022-11-15T14:50:36;3.70;;;0.97;;
74689;SDS011;63221;51.860;-2.188;2022-11-15T14:53:02;4.23;;;1.07;;
74689;SDS011;63221;51.860;-2.188;2022-11-15T14:55:33;3.45;;;0.55;;
74689;SDS011;63221;51.860;-2.188;2022-11-15T14:58:04;4.75;;;1.05;;
74689;SDS011;63221;51.860;-2.188;2022-11-15T15:00:33;4.47;;;0.87;;
74689;SDS011;63221;51.860;-2.188;2022-11-15T15:02:59;4.57;;;0.70;;
74689;SDS011;63221;51.860;-2.188;2022-11-15T15:07:51;4.60;;;1.20;;
74689;SDS011;63221;51.860;-2.188;2022-11-15T15:10:18;5.97;;;1.30;;
74689;SDS011;63221;51.860;-2.188;2022-11-15T15:12:43;9.38;;;1.45;;
74689;SDS011;63221;51.860;-2.188;2022-11-15T15:15:16;6.27;;;2.27;;
74689;SDS011;63221;51.860;-2.188;2022-11-15T15:17:45;7.07;;;1.08;;
74689;SDS011;63221;51.860;-2.188;2022-11-15T15:20:10;4.10;;;1.57;;
74689;SDS011;63221;51.860;-2.188;2022-11-15T15:22:36;3.72;;;1.27;;
74689;SDS011;63221;51.860;-2.188;2022-11-15T15:25:02;3.80;;;0.97;;
74689;SDS011;63221;51.860;-2.188;2022-11-15T15:27:29;3.38;;;0.95;;
74689;SDS011;63221;51.860;-2.188;2022-11-15T15:29:54;2.88;;;1.02;;
74689;SDS011;63221;51.860;-2.188;2022-11-15T15:32:19;3.03;;;0.80;;
74689;SDS011;63221;51.860;-2.188;2022-11-15T15:34:45;6.87;;;1.43;;
74689;SDS011;63221;51.860;-2.188;2022-11-15T15:37:21;6.30;;;1.30;;
74689;SDS011;63221;51.860;-2.188;2022-11-15T15:39:49;6.10;;;1.60;;
74689;SDS011;63221;51.860;-2.188;2022-11-15T15:42:18;4.25;;;1.58;;
74689;SDS011;63221;51.860;-2.188;2022-11-15T15:44:45;7.88;;;1.85;;
74689;SDS011;63221;51.860;-2.188;2022-11-15T15:47:11;4.73;;;1.20;;
74689;SDS011;63221;51.860;-2.188;2022-11-15T15:49:37;8.45;;;1.27;;
74689;SDS011;63221;51.860;-2.188;2022-11-15T15:52:03;6.57;;;1.50;;
74689;SDS011;63221;51.860;-2.188;2022-11-15T15:54:28;3.50;;;0.90;;
74689;SDS011;63221;51.860;-2.188;2022-11-15T15:56:54;3.83;;;0.75;;
74689;SDS011;63221;51.860;-2.188;2022-11-15T15:59:20;5.50;;;1.30;;
74689;SDS011;63221;51.860;-2.188;2022-11-15T16:01:45;6.28;;;1.75;;
74689;SDS011;63221;51.860;-2.188;2022-11-15T16:04:11;6.47;;;2.30;;
74689;SDS011;63221;51.860;-2.188;2022-11-15T16:06:37;4.87;;;1.57;;
74689;SDS011;63221;51.860;-2.188;2022-11-15T16:09:04;6.25;;;1.17;;
74689;SDS011;63221;51.860;-2.188;2022-11-15T16:11:30;5.95;;;1.55;;
74689;SDS011;63221;51.860;-2.188;2022-11-15T16:13:55;5.17;;;2.07;;
74689;SDS011;63221;51.860;-2.188;2022-11-15T16:16:21;5.83;;;1.50;;
74689;SDS011;63221;51.860;-2.188;2022-11-15T16:18:46;5.78;;;2.03;;
74689;SDS011;63221;51.860;-2.188;2022-11-15T16:21:12;9.97;;;1.87;;
74689;SDS011;63221;51.860;-2.188;2022-11-15T16:23:38;3.90;;;1.70;;
74689;SDS011;63221;51.860;-2.188;2022-11-15T16:26:06;5.28;;;0.98;;